Time;durP1;ratioP1;P1;durP2;ratioP2;P2;SDS_P1;SDS_P2;PMS_P1;PMS_P2;Temp;Humidity;BMP_temperature;BMP_pressure;BME280_temperature;BME280_humidity;BME280_pressure;Samples;Min_cycle;Max_cycle;Signal;HPM_P1;HPM_P2
2022/12/21 00:02:20;;;;;;;28.97;17.97;;;;;;;;;;5066594;28;20226;-25
2022/12/21 00:04:47;;;;;;;24.20;15.47;;;;;;;;;;5063627;28;20201;-27
2022/12/21 00:07:14;;;;;;;25.20;16.40;;;;;;;;;;5065873;28;20221;-26
2022/12/21 00:09:41;;;;;;;24.43;16.30;;;;;;;;;;5062935;28;20209;-24
2022/12/21 00:12:09;;;;;;;23.27;16.00;;;;;;;;;;5066257;28;20237;-25
2022/12/21 00:14:38;;;;;;;24.30;15.97;;;;;;;;;;5067808;28;20209;-27
2022/12/21 00:17:05;;;;;;;24.70;17.00;;;;;;;;;;5074510;28;20200;-25
2022/12/21 00:19:32;;;;;;;24.73;15.43;;;;;;;;;;5066364;28;20265;-27
2022/12/21 00:21:59;;;;;;;25.63;15.13;;;;;;;;;;5059296;28;20226;-27
2022/12/21 00:24:27;;;;;;;24.10;15.93;;;;;;;;;;5054014;28;20202;-27
2022/12/21 00:26:54;;;;;;;22.13;13.67;;;;;;;;;;5059361;28;20221;-27
2022/12/21 00:29:21;;;;;;;24.27;15.30;;;;;;;;;;5069553;28;20209;-24
2022/12/21 00:31:50;;;;;;;25.80;15.80;;;;;;;;;;5062346;28;20592;-25
2022/12/21 00:34:18;;;;;;;24.33;15.47;;;;;;;;;;5062793;28;20270;-27
2022/12/21 00:36:45;;;;;;;21.33;14.50;;;;;;;;;;5064213;28;20217;-25
2022/12/21 00:39:12;;;;;;;23.07;12.87;;;;;;;;;;5066023;28;20289;-27
2022/12/21 00:41:39;;;;;;;21.03;12.10;;;;;;;;;;5068331;28;20237;-26
2022/12/21 00:44:07;;;;;;;25.17;14.17;;;;;;;;;;5071575;28;20205;-27
2022/12/21 00:46:34;;;;;;;23.50;15.03;;;;;;;;;;5073960;28;20194;-27
2022/12/21 00:49:04;;;;;;;24.83;14.70;;;;;;;;;;5073146;28;20201;-27
2022/12/21 00:51:32;;;;;;;24.93;15.00;;;;;;;;;;5069998;28;20221;-27
2022/12/21 00:54:00;;;;;;;22.00;14.60;;;;;;;;;;5069045;28;20648;-27
2022/12/21 00:56:28;;;;;;;24.23;14.63;;;;;;;;;;5067207;28;20200;-26
2022/12/21 00:58:55;;;;;;;22.90;14.60;;;;;;;;;;5055705;28;20204;-26
2022/12/21 01:01:23;;;;;;;22.33;14.43;;;;;;;;;;5062228;28;20222;-25
2022/12/21 01:03:50;;;;;;;23.63;14.60;;;;;;;;;;5072783;28;20213;-25
2022/12/21 01:06:20;;;;;;;26.23;16.00;;;;;;;;;;5068185;28;20267;-25
2022/12/21 01:08:47;;;;;;;21.63;14.33;;;;;;;;;;5055197;28;20225;-25
2022/12/21 01:11:15;;;;;;;21.83;14.93;;;;;;;;;;5059498;28;20228;-25
2022/12/21 01:13:42;;;;;;;23.73;14.73;;;;;;;;;;5067590;28;20202;-25
2022/12/21 01:16:14;;;;;;;22.63;15.67;;;;;;;;;;5069616;28;20210;-26
2022/12/21 01:18:41;;;;;;;21.43;14.50;;;;;;;;;;5064877;28;20205;-28
2022/12/21 01:21:08;;;;;;;25.97;16.77;;;;;;;;;;5064685;28;20225;-27
2022/12/21 01:23:37;;;;;;;23.90;15.43;;;;;;;;;;5061770;28;20205;-27
2022/12/21 01:26:04;;;;;;;22.63;14.50;;;;;;;;;;5058159;28;20197;-27
2022/12/21 01:28:31;;;;;;;21.47;14.23;;;;;;;;;;5057440;28;20233;-26
2022/12/21 01:31:01;;;;;;;29.33;17.13;;;;;;;;;;5071378;28;20229;-26
2022/12/21 01:33:28;;;;;;;26.50;18.60;;;;;;;;;;5065613;28;20200;-25
2022/12/21 01:35:56;;;;;;;26.63;15.57;;;;;;;;;;5064055;28;20212;-27
2022/12/21 01:38:23;;;;;;;24.93;14.37;;;;;;;;;;5061845;28;20202;-27
2022/12/21 01:40:51;;;;;;;20.37;12.73;;;;;;;;;;5053096;28;20229;-27
2022/12/21 01:43:19;;;;;;;23.37;14.73;;;;;;;;;;5062747;28;20213;-26
2022/12/21 01:45:49;;;;;;;22.67;13.57;;;;;;;;;;5069812;28;20201;-26
2022/12/21 01:48:18;;;;;;;18.30;12.90;;;;;;;;;;5069489;28;20232;-27
2022/12/21 01:50:48;;;;;;;15.57;11.67;;;;;;;;;;5055405;28;20221;-28
2022/12/21 01:53:18;;;;;;;23.43;12.70;;;;;;;;;;5069226;28;20194;-27
2022/12/21 01:55:46;;;;;;;23.17;13.87;;;;;;;;;;5073472;28;20372;-26
2022/12/21 01:58:14;;;;;;;25.50;15.10;;;;;;;;;;5058701;28;20201;-26
2022/12/21 02:00:41;;;;;;;23.47;14.23;;;;;;;;;;5063003;28;20225;-26
2022/12/21 02:03:10;;;;;;;21.77;14.30;;;;;;;;;;5060362;28;20563;-26
2022/12/21 02:05:39;;;;;;;25.87;14.40;;;;;;;;;;5064742;28;20296;-27
2022/12/21 02:08:07;;;;;;;22.93;14.47;;;;;;;;;;5064192;28;20217;-27
2022/12/21 02:10:34;;;;;;;24.37;13.20;;;;;;;;;;5052670;28;20234;-24
2022/12/21 02:13:02;;;;;;;25.93;15.00;;;;;;;;;;5065131;28;20208;-27
2022/12/21 02:15:38;;;;;;;18.90;13.47;;;;;;;;;;5052759;28;20198;-25
2022/12/21 02:18:12;;;;;;;25.23;14.00;;;;;;;;;;5055033;28;20674;-27
2022/12/21 02:20:46;;;;;;;19.40;12.27;;;;;;;;;;5054830;28;20229;-27
2022/12/21 02:23:35;;;;;;;21.77;13.63;;;;;;;;;;5060074;28;20262;-25
2022/12/21 02:26:13;;;;;;;21.23;13.27;;;;;;;;;;5026764;28;20562;-27
2022/12/21 02:29:05;;;;;;;24.70;13.37;;;;;;;;;;5059989;28;20216;-27
2022/12/21 02:31:40;;;;;;;21.93;12.60;;;;;;;;;;5053749;28;20232;-25
2022/12/21 02:34:12;;;;;;;25.30;13.67;;;;;;;;;;5051430;28;20633;-28
2022/12/21 02:36:43;;;;;;;24.87;12.73;;;;;;;;;;5050919;28;20210;-26
2022/12/21 02:39:15;;;;;;;22.20;13.70;;;;;;;;;;5057794;28;20190;-28
2022/12/21 02:41:48;;;;;;;23.20;13.73;;;;;;;;;;5051241;28;20249;-26
2022/12/21 02:44:24;;;;;;;22.40;13.87;;;;;;;;;;5049903;28;20241;-27
2022/12/21 02:46:57;;;;;;;20.90;13.47;;;;;;;;;;5051072;28;20201;-25
2022/12/21 02:49:26;;;;;;;18.57;12.17;;;;;;;;;;5051963;28;20225;-24
2022/12/21 02:51:57;;;;;;;17.90;11.03;;;;;;;;;;5051720;28;20229;-25
2022/12/21 02:54:25;;;;;;;19.97;13.63;;;;;;;;;;5060712;28;20207;-25
2022/12/21 02:56:52;;;;;;;22.33;13.93;;;;;;;;;;5065135;28;20206;-26
2022/12/21 02:59:20;;;;;;;19.23;13.43;;;;;;;;;;5054818;28;20205;-27
2022/12/21 03:02:03;;;;;;;22.10;13.43;;;;;;;;;;5056665;28;20222;-26
2022/12/21 03:04:36;;;;;;;21.53;11.83;;;;;;;;;;5059823;28;20281;-24
2022/12/21 03:07:24;;;;;;;22.90;13.07;;;;;;;;;;5074670;28;20197;-27
2022/12/21 03:09:57;;;;;;;19.83;11.63;;;;;;;;;;5068343;28;20197;-26
2022/12/21 03:12:30;;;;;;;18.97;11.37;;;;;;;;;;5065953;28;20230;-26
2022/12/21 03:15:01;;;;;;;21.03;12.87;;;;;;;;;;5059637;28;20244;-24
2022/12/21 03:17:34;;;;;;;19.50;12.10;;;;;;;;;;5074181;28;20200;-26
2022/12/21 03:20:05;;;;;;;19.63;11.67;;;;;;;;;;5073855;28;20198;-26
2022/12/21 03:22:35;;;;;;;15.83;10.70;;;;;;;;;;5065165;28;20221;-27
2022/12/21 03:25:06;;;;;;;18.47;11.93;;;;;;;;;;5075195;28;20201;-24
2022/12/21 03:27:35;;;;;;;17.63;12.60;;;;;;;;;;5056318;28;20210;-25
2022/12/21 03:30:05;;;;;;;23.97;14.23;;;;;;;;;;5054926;28;20206;-26
2022/12/21 03:32:35;;;;;;;24.73;14.33;;;;;;;;;;5073937;28;20237;-30
2022/12/21 03:35:03;;;;;;;20.03;13.13;;;;;;;;;;5068569;28;20202;-28
2022/12/21 03:37:32;;;;;;;17.20;10.93;;;;;;;;;;5073571;28;20211;-26
2022/12/21 03:40:02;;;;;;;18.80;13.03;;;;;;;;;;5073055;28;20201;-27
2022/12/21 03:42:32;;;;;;;21.80;12.23;;;;;;;;;;5060278;28;20313;-26
2022/12/21 03:45:03;;;;;;;19.13;12.13;;;;;;;;;;5062353;28;20205;-28
2022/12/21 03:47:32;;;;;;;20.43;12.53;;;;;;;;;;5057650;28;20198;-24
2022/12/21 03:50:02;;;;;;;17.13;9.63;;;;;;;;;;5055566;28;20210;-27
2022/12/21 03:52:34;;;;;;;22.30;12.50;;;;;;;;;;5066655;28;20225;-29
2022/12/21 03:55:03;;;;;;;21.90;13.03;;;;;;;;;;5060627;28;20205;-27
2022/12/21 03:57:30;;;;;;;20.13;13.40;;;;;;;;;;5057054;28;20209;-27
2022/12/21 03:59:59;;;;;;;25.67;14.73;;;;;;;;;;5067320;28;20210;-26
2022/12/21 04:02:28;;;;;;;22.30;13.20;;;;;;;;;;5055173;28;20241;-28
2022/12/21 04:04:57;;;;;;;20.80;12.57;;;;;;;;;;5058912;28;20201;-26
2022/12/21 04:07:27;;;;;;;20.40;12.63;;;;;;;;;;5060608;28;20204;-25
2022/12/21 04:09:58;;;;;;;22.67;13.60;;;;;;;;;;5054472;28;20218;-25
2022/12/21 04:12:36;;;;;;;24.63;13.47;;;;;;;;;;5054410;28;20453;-28
2022/12/21 04:15:04;;;;;;;23.57;14.53;;;;;;;;;;5058506;28;20193;-25
2022/12/21 04:17:31;;;;;;;23.73;13.93;;;;;;;;;;5055053;28;20222;-26
2022/12/21 04:19:57;;;;;;;23.13;14.77;;;;;;;;;;5053466;28;20209;-25
2022/12/21 04:28:09;;;;;;;17.43;12.90;;;;;;;;;;5060491;28;20239;-25
2022/12/21 04:30:36;;;;;;;20.97;13.33;;;;;;;;;;5062116;28;20218;-26
2022/12/21 04:33:03;;;;;;;19.17;11.70;;;;;;;;;;5054849;28;20217;-27
2022/12/21 04:35:31;;;;;;;20.23;12.97;;;;;;;;;;5056854;28;20201;-24
2022/12/21 04:37:58;;;;;;;23.17;14.00;;;;;;;;;;5055321;28;20206;-25
2022/12/21 04:40:25;;;;;;;22.80;14.43;;;;;;;;;;5142753;23;20722;-23
2022/12/21 04:42:52;;;;;;;21.43;13.50;;;;;;;;;;5038642;28;20206;-28
2022/12/21 04:45:20;;;;;;;18.33;12.33;;;;;;;;;;5034646;28;20682;-28
2022/12/21 04:47:47;;;;;;;19.13;13.00;;;;;;;;;;5041383;28;20202;-29
2022/12/21 04:50:14;;;;;;;20.57;14.53;;;;;;;;;;5032286;28;20668;-30
2022/12/21 04:52:42;;;;;;;26.33;13.90;;;;;;;;;;5040554;28;20217;-30
2022/12/21 04:55:10;;;;;;;21.10;13.47;;;;;;;;;;5046661;28;20198;-25
2022/12/21 04:57:37;;;;;;;23.20;13.77;;;;;;;;;;5037229;28;20206;-23
2022/12/21 05:00:05;;;;;;;19.20;12.83;;;;;;;;;;5043052;28;20217;-24
2022/12/21 05:02:32;;;;;;;20.07;12.13;;;;;;;;;;5039880;28;20310;-27
2022/12/21 05:04:59;;;;;;;18.07;12.27;;;;;;;;;;5053514;28;20194;-29
2022/12/21 05:07:26;;;;;;;23.50;14.67;;;;;;;;;;5040015;28;20203;-29
2022/12/21 05:09:53;;;;;;;22.17;14.33;;;;;;;;;;5042658;28;20223;-24
2022/12/21 05:12:22;;;;;;;18.40;13.33;;;;;;;;;;5038585;28;20236;-28
2022/12/21 05:14:49;;;;;;;22.07;13.53;;;;;;;;;;5047441;28;20206;-28
2022/12/21 05:17:16;;;;;;;18.37;12.47;;;;;;;;;;5050496;28;20216;-27
2022/12/21 05:19:46;;;;;;;19.20;13.23;;;;;;;;;;5048831;28;20198;-27
2022/12/21 05:22:16;;;;;;;21.10;13.33;;;;;;;;;;5035545;28;20249;-28
2022/12/21 05:24:43;;;;;;;25.00;13.10;;;;;;;;;;5037772;28;20202;-29
2022/12/21 05:27:10;;;;;;;17.93;11.90;;;;;;;;;;5041936;28;20209;-31
2022/12/21 05:29:38;;;;;;;21.73;13.10;;;;;;;;;;5034728;28;20692;-27
2022/12/21 05:32:06;;;;;;;18.33;11.17;;;;;;;;;;5049744;28;20221;-29
2022/12/21 05:34:33;;;;;;;16.00;10.87;;;;;;;;;;5050992;28;20405;-28
2022/12/21 05:37:00;;;;;;;14.93;10.27;;;;;;;;;;5038265;28;20556;-24
2022/12/21 05:39:27;;;;;;;19.30;12.00;;;;;;;;;;5029500;28;20264;-26
2022/12/21 05:41:54;;;;;;;23.07;10.80;;;;;;;;;;5039819;28;20276;-29
2022/12/21 05:44:21;;;;;;;25.07;12.67;;;;;;;;;;5041691;28;20213;-28
2022/12/21 05:46:50;;;;;;;21.83;12.90;;;;;;;;;;5045498;28;20209;-29
2022/12/21 05:49:17;;;;;;;21.67;14.93;;;;;;;;;;5051693;28;20230;-29
2022/12/21 05:51:44;;;;;;;24.20;14.37;;;;;;;;;;5041655;28;20230;-29
2022/12/21 05:54:11;;;;;;;18.93;11.90;;;;;;;;;;5045951;28;20660;-29
2022/12/21 05:56:38;;;;;;;20.73;12.93;;;;;;;;;;5036689;28;20213;-30
2022/12/21 05:59:05;;;;;;;22.07;13.23;;;;;;;;;;5048575;28;20202;-26
2022/12/21 06:01:32;;;;;;;17.40;12.47;;;;;;;;;;5043230;28;20213;-27
2022/12/21 06:04:01;;;;;;;17.30;10.80;;;;;;;;;;5047314;28;20206;-27
2022/12/21 06:06:28;;;;;;;20.10;12.40;;;;;;;;;;5041468;28;20207;-27
2022/12/21 06:08:55;;;;;;;18.73;11.83;;;;;;;;;;5045337;28;20223;-26
2022/12/21 06:11:24;;;;;;;24.33;13.47;;;;;;;;;;5029671;28;20226;-26
2022/12/21 06:13:53;;;;;;;19.97;11.73;;;;;;;;;;5036383;28;20255;-26
2022/12/21 06:16:22;;;;;;;17.87;12.87;;;;;;;;;;5044232;28;20210;-26
2022/12/21 06:18:49;;;;;;;28.20;14.17;;;;;;;;;;5052374;28;20551;-29
2022/12/21 06:21:18;;;;;;;24.77;13.77;;;;;;;;;;5043617;28;20227;-24
2022/12/21 06:23:46;;;;;;;21.63;14.00;;;;;;;;;;5036386;28;20211;-26
2022/12/21 06:26:14;;;;;;;31.53;14.47;;;;;;;;;;5033451;28;20745;-28
2022/12/21 06:28:41;;;;;;;28.50;13.43;;;;;;;;;;5037610;28;20226;-26
2022/12/21 06:31:09;;;;;;;21.80;13.07;;;;;;;;;;5037597;28;20222;-28
2022/12/21 06:33:36;;;;;;;21.37;12.83;;;;;;;;;;5035589;28;20210;-27
2022/12/21 06:36:04;;;;;;;23.80;14.20;;;;;;;;;;5038375;28;20204;-27
2022/12/21 06:38:33;;;;;;;23.03;14.13;;;;;;;;;;5040189;28;20260;-29
2022/12/21 06:41:01;;;;;;;19.37;12.63;;;;;;;;;;5034233;28;20739;-25
2022/12/21 06:43:28;;;;;;;18.00;12.13;;;;;;;;;;5038197;28;20206;-30
2022/12/21 06:45:56;;;;;;;21.80;13.90;;;;;;;;;;5037357;28;20202;-30
2022/12/21 06:48:23;;;;;;;20.50;12.97;;;;;;;;;;5038642;28;20684;-28
2022/12/21 06:50:54;;;;;;;19.67;12.90;;;;;;;;;;5042470;28;20641;-29
2022/12/21 06:53:21;;;;;;;19.10;13.33;;;;;;;;;;5043413;28;20255;-26
2022/12/21 06:55:50;;;;;;;20.73;12.13;;;;;;;;;;5042734;28;20663;-26
2022/12/21 06:58:17;;;;;;;19.97;11.80;;;;;;;;;;5041465;28;20202;-25
2022/12/21 07:00:44;;;;;;;19.50;12.33;;;;;;;;;;5040611;28;20213;-30
2022/12/21 07:03:11;;;;;;;21.67;13.97;;;;;;;;;;5041056;28;20210;-28
2022/12/21 07:05:38;;;;;;;22.13;12.93;;;;;;;;;;5031963;28;20202;-28
2022/12/21 07:08:05;;;;;;;20.73;13.20;;;;;;;;;;5037054;28;20209;-28
2022/12/21 07:10:33;;;;;;;21.87;13.87;;;;;;;;;;5039519;28;20305;-26
2022/12/21 07:13:01;;;;;;;20.90;13.07;;;;;;;;;;5039642;28;20209;-29
2022/12/21 07:15:28;;;;;;;17.57;11.90;;;;;;;;;;5040043;28;20222;-27
2022/12/21 07:17:55;;;;;;;22.07;13.40;;;;;;;;;;5031309;28;20206;-27
2022/12/21 07:20:22;;;;;;;22.10;13.03;;;;;;;;;;5032888;28;20199;-27
2022/12/21 07:22:50;;;;;;;22.70;13.80;;;;;;;;;;5036112;28;20694;-27
2022/12/21 07:25:17;;;;;;;18.43;12.10;;;;;;;;;;5035317;28;20565;-25
2022/12/21 07:27:44;;;;;;;20.00;12.07;;;;;;;;;;5033884;28;20313;-28
2022/12/21 07:30:13;;;;;;;22.47;13.93;;;;;;;;;;5048816;28;20214;-28
2022/12/21 07:32:40;;;;;;;25.70;13.17;;;;;;;;;;5049038;28;20214;-30
2022/12/21 07:35:08;;;;;;;20.80;14.00;;;;;;;;;;5038033;28;20215;-31
2022/12/21 07:37:36;;;;;;;31.30;15.63;;;;;;;;;;5045460;28;20210;-29
2022/12/21 07:40:04;;;;;;;27.70;14.17;;;;;;;;;;5028868;28;20234;-28
2022/12/21 07:42:32;;;;;;;23.63;14.43;;;;;;;;;;5031099;28;20219;-29
2022/12/21 07:44:59;;;;;;;29.20;13.87;;;;;;;;;;5035415;28;20261;-24
2022/12/21 07:47:28;;;;;;;24.73;15.37;;;;;;;;;;5040401;28;20202;-29
2022/12/21 07:49:55;;;;;;;23.60;15.33;;;;;;;;;;5046195;28;20218;-32
2022/12/21 07:52:22;;;;;;;31.73;16.03;;;;;;;;;;5046744;28;20226;-24
2022/12/21 07:54:49;;;;;;;28.07;15.00;;;;;;;;;;5036130;28;20206;-29
2022/12/21 07:57:16;;;;;;;34.63;15.67;;;;;;;;;;5038691;28;20214;-26
2022/12/21 07:59:43;;;;;;;26.63;15.10;;;;;;;;;;5042049;28;20198;-24
2022/12/21 08:02:11;;;;;;;27.93;15.93;;;;;;;;;;5047818;28;20218;-24
2022/12/21 08:04:39;;;;;;;21.03;13.20;;;;;;;;;;5048712;28;20206;-27
2022/12/21 08:07:06;;;;;;;24.40;15.07;;;;;;;;;;5039888;28;20213;-25
2022/12/21 08:09:33;;;;;;;21.43;12.30;;;;;;;;;;5050871;28;20229;-29
2022/12/21 08:12:00;;;;;;;25.17;14.03;;;;;;;;;;5040423;28;20225;-27
2022/12/21 08:14:28;;;;;;;19.53;12.63;;;;;;;;;;5035425;28;20203;-27
2022/12/21 08:16:55;;;;;;;20.03;12.27;;;;;;;;;;5047723;28;20209;-25
2022/12/21 08:19:22;;;;;;;20.37;12.53;;;;;;;;;;5054523;28;20205;-27
2022/12/21 08:21:50;;;;;;;20.97;12.07;;;;;;;;;;5039198;28;20222;-28
2022/12/21 08:24:17;;;;;;;18.53;11.43;;;;;;;;;;5044693;28;20669;-28
2022/12/21 08:26:44;;;;;;;18.57;12.20;;;;;;;;;;5033915;28;20651;-28
2022/12/21 08:29:13;;;;;;;24.97;13.07;;;;;;;;;;5041964;28;20667;-28
2022/12/21 08:31:40;;;;;;;22.03;12.67;;;;;;;;;;5042224;28;20261;-28
2022/12/21 08:34:07;;;;;;;17.47;11.47;;;;;;;;;;5049111;28;20210;-27
2022/12/21 08:36:34;;;;;;;21.63;12.30;;;;;;;;;;5046162;28;20215;-27
2022/12/21 08:39:03;;;;;;;25.20;13.93;;;;;;;;;;5050011;28;20293;-24
2022/12/21 08:41:30;;;;;;;20.00;13.37;;;;;;;;;;5047809;28;20234;-28
2022/12/21 08:43:57;;;;;;;21.47;12.53;;;;;;;;;;5039732;28;20210;-26
2022/12/21 08:46:24;;;;;;;22.50;12.83;;;;;;;;;;5033600;28;20783;-30
2022/12/21 08:48:51;;;;;;;24.13;11.50;;;;;;;;;;5033791;28;20542;-24
2022/12/21 08:51:18;;;;;;;27.63;12.30;;;;;;;;;;5033786;28;20227;-26
2022/12/21 08:53:46;;;;;;;21.37;12.07;;;;;;;;;;5041758;28;20302;-27
2022/12/21 08:56:15;;;;;;;27.47;14.37;;;;;;;;;;5032137;28;20207;-26
2022/12/21 08:58:42;;;;;;;25.00;12.83;;;;;;;;;;5035484;28;20206;-27
2022/12/21 09:01:10;;;;;;;22.70;13.40;;;;;;;;;;5053046;28;20230;-26
2022/12/21 09:03:37;;;;;;;19.87;12.43;;;;;;;;;;5050063;28;20202;-27
2022/12/21 09:06:04;;;;;;;23.23;12.47;;;;;;;;;;5043722;28;20212;-25
2022/12/21 09:08:32;;;;;;;20.87;13.37;;;;;;;;;;5053143;28;20205;-26
2022/12/21 09:11:03;;;;;;;51.07;13.80;;;;;;;;;;5052651;28;20233;-29
2022/12/21 09:13:31;;;;;;;17.47;12.00;;;;;;;;;;5043737;28;20213;-26
2022/12/21 09:15:59;;;;;;;22.37;12.37;;;;;;;;;;5034933;28;20203;-27
2022/12/21 09:18:26;;;;;;;19.97;12.17;;;;;;;;;;5044341;28;20645;-25
2022/12/21 09:20:54;;;;;;;19.53;11.40;;;;;;;;;;5034741;28;20223;-25
2022/12/21 09:23:21;;;;;;;16.57;10.90;;;;;;;;;;5037226;28;20450;-26
2022/12/21 09:25:48;;;;;;;24.87;12.17;;;;;;;;;;5035154;28;20260;-27
2022/12/21 09:28:15;;;;;;;18.40;11.93;;;;;;;;;;5042087;28;20204;-28
2022/12/21 09:30:44;;;;;;;18.63;11.47;;;;;;;;;;5036022;28;20253;-30
2022/12/21 09:33:11;;;;;;;18.87;10.83;;;;;;;;;;5040825;28;20202;-29
2022/12/21 09:35:38;;;;;;;17.53;11.33;;;;;;;;;;5047136;28;20211;-28
2022/12/21 09:38:05;;;;;;;21.17;11.63;;;;;;;;;;5037591;28;20203;-25
2022/12/21 09:40:33;;;;;;;15.50;10.60;;;;;;;;;;5051049;28;20206;-29
2022/12/21 09:43:04;;;;;;;16.67;11.27;;;;;;;;;;5040647;28;20289;-25
2022/12/21 09:45:38;;;;;;;13.83;8.93;;;;;;;;;;5032329;28;20190;-28
2022/12/21 09:48:08;;;;;;;15.40;9.33;;;;;;;;;;5042620;28;20202;-23
2022/12/21 09:50:38;;;;;;;14.40;9.47;;;;;;;;;;5042438;28;20234;-28
2022/12/21 09:53:11;;;;;;;13.60;9.60;;;;;;;;;;5037673;28;20206;-26
2022/12/21 09:55:43;;;;;;;19.67;11.47;;;;;;;;;;5032947;28;20277;-27
2022/12/21 09:58:13;;;;;;;21.47;13.60;;;;;;;;;;5039408;28;20648;-27
2022/12/21 10:00:43;;;;;;;17.63;11.47;;;;;;;;;;5046562;28;20720;-25
2022/12/21 10:03:19;;;;;;;17.10;10.00;;;;;;;;;;5042357;28;20205;-31
2022/12/21 10:05:53;;;;;;;15.60;9.83;;;;;;;;;;5040165;28;20189;-29
2022/12/21 10:08:30;;;;;;;19.53;12.53;;;;;;;;;;5038198;28;20290;-26
2022/12/21 10:11:03;;;;;;;15.03;10.50;;;;;;;;;;5036615;28;20233;-30
2022/12/21 10:13:35;;;;;;;14.87;10.10;;;;;;;;;;5040340;28;20762;-31
2022/12/21 10:16:05;;;;;;;14.70;11.10;;;;;;;;;;5034851;28;20261;-25
2022/12/21 10:18:38;;;;;;;20.43;13.27;;;;;;;;;;5040524;28;20536;-27
2022/12/21 10:21:13;;;;;;;24.03;14.77;;;;;;;;;;5041490;28;20223;-24
2022/12/21 10:23:42;;;;;;;20.13;11.70;;;;;;;;;;5044323;28;20197;-27
2022/12/21 10:26:13;;;;;;;18.73;11.77;;;;;;;;;;5036213;28;20280;-22
2022/12/21 10:28:45;;;;;;;16.07;8.97;;;;;;;;;;5041155;28;20206;-27
2022/12/21 10:31:20;;;;;;;9.83;8.03;;;;;;;;;;5041927;28;20226;-25
2022/12/21 10:33:51;;;;;;;14.60;9.07;;;;;;;;;;5042087;28;20217;-25
2022/12/21 10:36:20;;;;;;;14.83;9.80;;;;;;;;;;5041495;28;20209;-27
2022/12/21 10:38:47;;;;;;;18.87;13.63;;;;;;;;;;5038693;28;20198;-25
2022/12/21 10:41:16;;;;;;;18.00;12.27;;;;;;;;;;5043144;28;20317;-25
2022/12/21 10:43:47;;;;;;;23.53;18.10;;;;;;;;;;5039078;28;20202;-27
2022/12/21 10:46:14;;;;;;;18.10;10.97;;;;;;;;;;5039673;28;20694;-27
2022/12/21 10:48:43;;;;;;;20.57;13.20;;;;;;;;;;5037388;28;20203;-31
2022/12/21 10:51:18;;;;;;;15.23;11.80;;;;;;;;;;5036763;28;20229;-26
2022/12/21 10:53:58;;;;;;;22.87;13.27;;;;;;;;;;5042584;28;20202;-28
2022/12/21 10:56:26;;;;;;;11.60;8.17;;;;;;;;;;5031328;28;20255;-25
2022/12/21 10:58:54;;;;;;;12.20;10.40;;;;;;;;;;5048807;28;20649;-27
2022/12/21 11:01:24;;;;;;;20.27;11.83;;;;;;;;;;5034819;28;20218;-28
2022/12/21 11:04:06;;;;;;;17.03;11.63;;;;;;;;;;5042031;28;20212;-30
2022/12/21 11:06:36;;;;;;;39.67;9.13;;;;;;;;;;5044674;28;20203;-29
2022/12/21 11:09:04;;;;;;;26.37;7.97;;;;;;;;;;5290996;23;20225;-25
2022/12/21 11:11:32;;;;;;;15.47;7.90;;;;;;;;;;5042768;28;20280;-26
2022/12/21 11:14:00;;;;;;;13.07;9.17;;;;;;;;;;5038481;28;20209;-28
2022/12/21 11:16:29;;;;;;;32.07;8.93;;;;;;;;;;5040328;28;20206;-25
2022/12/21 11:18:59;;;;;;;16.93;8.70;;;;;;;;;;5032662;28;20203;-27
2022/12/21 11:21:31;;;;;;;17.43;7.67;;;;;;;;;;5037879;28;20227;-27
2022/12/21 11:24:00;;;;;;;12.10;9.13;;;;;;;;;;5049517;28;20203;-25
2022/12/21 11:26:29;;;;;;;21.23;10.57;;;;;;;;;;5034688;28;20198;-26
2022/12/21 11:29:03;;;;;;;13.03;8.73;;;;;;;;;;5043283;28;20206;-25
2022/12/21 11:31:30;;;;;;;16.47;10.70;;;;;;;;;;5041505;28;20218;-26
2022/12/21 11:33:58;;;;;;;17.87;10.70;;;;;;;;;;5045327;28;20202;-25
2022/12/21 11:36:25;;;;;;;18.87;11.07;;;;;;;;;;5047278;28;20198;-25
2022/12/21 11:38:52;;;;;;;17.50;11.63;;;;;;;;;;5036755;28;20212;-24
2022/12/21 11:41:24;;;;;;;18.63;11.50;;;;;;;;;;5048005;28;20313;-27
2022/12/21 11:43:51;;;;;;;21.90;12.03;;;;;;;;;;5042594;28;20213;-26
2022/12/21 11:46:36;;;;;;;19.20;10.87;;;;;;;;;;5043534;28;20803;-27
2022/12/21 11:49:12;;;;;;;11.90;8.90;;;;;;;;;;5040137;28;20209;-27
2022/12/21 11:51:42;;;;;;;14.30;9.27;;;;;;;;;;5045043;28;20687;-26
2022/12/21 11:54:17;;;;;;;10.93;8.13;;;;;;;;;;5040341;28;20201;-25
2022/12/21 11:56:48;;;;;;;10.67;8.17;;;;;;;;;;5046468;28;20211;-24
2022/12/21 11:59:23;;;;;;;11.53;7.50;;;;;;;;;;5038365;28;20210;-26
2022/12/21 12:01:56;;;;;;;9.53;7.07;;;;;;;;;;5048032;28;20229;-27
2022/12/21 12:04:38;;;;;;;10.03;8.07;;;;;;;;;;5053837;28;20211;-28
2022/12/21 12:07:14;;;;;;;9.90;7.30;;;;;;;;;;5036832;28;20206;-25
2022/12/21 12:09:55;;;;;;;8.83;7.60;;;;;;;;;;5034353;28;20214;-28
2022/12/21 12:12:27;;;;;;;8.07;6.67;;;;;;;;;;5035498;28;20246;-25
2022/12/21 12:15:06;;;;;;;8.63;5.90;;;;;;;;;;5051977;28;20584;-26
2022/12/21 12:17:38;;;;;;;9.33;6.17;;;;;;;;;;5046785;28;20190;-27
2022/12/21 12:20:12;;;;;;;9.80;6.10;;;;;;;;;;5055160;28;20197;-27
2022/12/21 12:22:45;;;;;;;5.57;4.83;;;;;;;;;;5039919;28;20292;-27
2022/12/21 12:25:17;;;;;;;5.20;4.60;;;;;;;;;;5049711;28;20206;-27
2022/12/21 12:27:55;;;;;;;6.50;4.30;;;;;;;;;;5038040;28;20207;-26
2022/12/21 12:30:23;;;;;;;6.00;5.37;;;;;;;;;;5035847;28;20290;-26
2022/12/21 12:32:58;;;;;;;8.57;5.23;;;;;;;;;;5034394;28;20210;-25
2022/12/21 12:35:52;;;;;;;6.67;4.87;;;;;;;;;;5038986;28;20205;-25
2022/12/21 12:38:25;;;;;;;6.40;5.10;;;;;;;;;;4993916;28;20206;-28
2022/12/21 12:41:01;;;;;;;6.30;4.80;;;;;;;;;;5036869;28;20222;-25
2022/12/21 12:43:35;;;;;;;8.07;5.10;;;;;;;;;;5043606;28;20229;-26
2022/12/21 12:46:09;;;;;;;10.60;5.83;;;;;;;;;;5047872;28;20570;-26
2022/12/21 12:48:38;;;;;;;10.90;5.93;;;;;;;;;;5034430;28;20213;-25
2022/12/21 12:51:10;;;;;;;9.80;6.33;;;;;;;;;;5043830;28;20226;-25
2022/12/21 12:53:39;;;;;;;10.03;6.40;;;;;;;;;;5049100;28;20794;-27
2022/12/21 12:56:13;;;;;;;9.30;5.70;;;;;;;;;;5046290;28;20198;-27
2022/12/21 12:58:46;;;;;;;9.00;5.37;;;;;;;;;;5037084;28;20202;-24
2022/12/21 13:01:16;;;;;;;12.20;6.50;;;;;;;;;;5043603;28;20225;-27
2022/12/21 13:03:56;;;;;;;7.93;5.33;;;;;;;;;;5031871;28;20286;-24
2022/12/21 13:06:29;;;;;;;9.13;4.67;;;;;;;;;;5038684;28;20201;-27
2022/12/21 13:09:03;;;;;;;8.97;6.13;;;;;;;;;;5032027;28;20206;-25
2022/12/21 13:11:33;;;;;;;10.83;5.03;;;;;;;;;;5041246;28;20592;-25
2022/12/21 13:14:06;;;;;;;6.97;4.80;;;;;;;;;;5041906;28;20219;-27
2022/12/21 13:16:37;;;;;;;9.27;4.97;;;;;;;;;;5040524;28;20198;-26
2022/12/21 13:19:06;;;;;;;5.60;5.03;;;;;;;;;;5045154;28;20194;-26
2022/12/21 13:21:35;;;;;;;6.30;4.90;;;;;;;;;;5035671;28;20221;-27
2022/12/21 13:24:05;;;;;;;7.70;4.97;;;;;;;;;;5037001;28;20213;-28
2022/12/21 13:26:34;;;;;;;7.17;4.60;;;;;;;;;;5041344;28;20198;-26
2022/12/21 13:29:06;;;;;;;6.43;4.47;;;;;;;;;;5039049;28;20213;-24
2022/12/21 13:31:39;;;;;;;5.27;4.20;;;;;;;;;;5043930;28;20230;-27
2022/12/21 13:34:08;;;;;;;7.07;4.20;;;;;;;;;;5054029;28;20194;-25
2022/12/21 13:36:57;;;;;;;6.20;4.80;;;;;;;;;;5043287;28;20238;-27
2022/12/21 13:39:26;;;;;;;5.07;4.27;;;;;;;;;;5040026;28;20207;-28
2022/12/21 13:41:55;;;;;;;5.60;4.20;;;;;;;;;;5039139;28;20224;-27
2022/12/21 13:44:28;;;;;;;5.03;4.07;;;;;;;;;;5053345;28;20222;-24
2022/12/21 13:46:56;;;;;;;3.80;3.50;;;;;;;;;;5040523;28;20211;-26
2022/12/21 13:49:29;;;;;;;5.90;4.30;;;;;;;;;;5036385;28;20293;-26
2022/12/21 13:51:57;;;;;;;7.17;3.40;;;;;;;;;;5045600;28;20229;-27
2022/12/21 13:54:33;;;;;;;4.50;3.40;;;;;;;;;;5045421;28;20202;-28
2022/12/21 13:57:06;;;;;;;4.80;3.53;;;;;;;;;;5047776;28;20201;-26
2022/12/21 13:59:40;;;;;;;4.20;3.47;;;;;;;;;;5035047;28;20198;-26
2022/12/21 14:02:17;;;;;;;3.97;3.50;;;;;;;;;;5053264;28;20226;-26
2022/12/21 14:04:47;;;;;;;4.47;3.20;;;;;;;;;;5053816;28;20182;-27
2022/12/21 14:07:27;;;;;;;5.83;4.17;;;;;;;;;;5038152;28;20210;-26
2022/12/21 14:10:01;;;;;;;6.23;4.10;;;;;;;;;;5037424;28;20212;-27
2022/12/21 14:12:38;;;;;;;4.10;3.53;;;;;;;;;;5041233;28;20232;-26
2022/12/21 14:15:19;;;;;;;6.67;3.47;;;;;;;;;;5051570;28;20217;-27
2022/12/21 14:17:48;;;;;;;4.43;3.10;;;;;;;;;;5041022;28;20297;-26
2022/12/21 14:20:22;;;;;;;4.50;3.30;;;;;;;;;;5047552;28;20194;-26
2022/12/21 14:22:49;;;;;;;4.57;3.40;;;;;;;;;;5043037;28;20190;-26
2022/12/21 14:25:34;;;;;;;3.70;3.40;;;;;;;;;;5035891;28;20202;-26
2022/12/21 14:28:05;;;;;;;8.13;5.00;;;;;;;;;;5036338;28;20210;-29
2022/12/21 14:30:34;;;;;;;8.10;5.70;;;;;;;;;;5041658;28;20496;-26
2022/12/21 14:33:04;;;;;;;6.20;4.13;;;;;;;;;;5052960;28;20214;-25
2022/12/21 14:35:33;;;;;;;6.23;4.30;;;;;;;;;;5050656;28;20186;-26
2022/12/21 14:38:11;;;;;;;5.70;4.00;;;;;;;;;;5038610;28;20235;-25
2022/12/21 14:40:53;;;;;;;6.70;4.70;;;;;;;;;;5031706;28;20222;-25
2022/12/21 14:43:20;;;;;;;8.40;5.77;;;;;;;;;;5038536;28;20280;-28
2022/12/21 14:45:49;;;;;;;10.00;6.00;;;;;;;;;;5050850;28;20202;-26